EXS7GH EGJJ-EGGP
Flight info
| Callsign | EXS7GH |
|---|---|
| Flight time | 0h 48m |
| Altitude | 24000 |
| Route | SKERY L22 EMWIP P16 TOJAQ/N0358F230 DCT EPACE DCT ACCOP DCT MOCQO P16 PEPZE |
| Aircraft | B738/M-SDE2E3FGHIRWXY/LB1 |
Departure
| Time | 2026-01-20 10:14 |
|---|---|
| Airport | Jersey Airport (EGJJ) |
Arrival
| Time | 2026-01-20 11:02 |
|---|---|
| Airport | Liverpool John Lennon Airport (EGGP) |
| Time | Latitude | Longitude | Altitude | Speed | Heading |
|---|---|---|---|---|---|
| 2026-01-20 09:54 | 49.20556 | -2.19807 | 279 ft | 0 kts | 171° |
| 2026-01-20 10:04 | 49.20546 | -2.19803 | 284 ft | 0 kts | 162° |
| 2026-01-20 10:08 | 49.20552 | -2.19806 | 279 ft | 4 kts | 162° |
| 2026-01-20 10:09 | 49.20586 | -2.19819 | 279 ft | 4 kts | 174° |
| 2026-01-20 10:10 | 49.20585 | -2.19820 | 279 ft | 2 kts | 189° |
| 2026-01-20 10:10 | 49.20544 | -2.19922 | 279 ft | 7 kts | 211° |
| 2026-01-20 10:11 | 49.20531 | -2.20064 | 279 ft | 10 kts | 284° |
| 2026-01-20 10:11 | 49.20578 | -2.20301 | 284 ft | 12 kts | 287° |
| 2026-01-20 10:12 | 49.20625 | -2.20559 | 280 ft | 12 kts | 278° |
| 2026-01-20 10:12 | 49.20641 | -2.20685 | 281 ft | 12 kts | 314° |
| 2026-01-20 10:13 | 49.20766 | -2.19932 | 282 ft | 100 kts | 84° |
| 2026-01-20 10:13 | 49.21052 | -2.16892 | 1285 ft | 160 kts | 92° |
| 2026-01-20 10:14 | 49.23392 | -2.11829 | 3077 ft | 250 kts | 26° |
| 2026-01-20 10:14 | 49.25131 | -2.11130 | 3433 ft | 269 kts | 2° |
| 2026-01-20 10:15 | 49.28463 | -2.13675 | 4463 ft | 280 kts | 307° |
| 2026-01-20 10:15 | 49.31205 | -2.17992 | 4997 ft | 286 kts | 309° |
| 2026-01-20 10:16 | 49.34092 | -2.22242 | 5630 ft | 290 kts | 311° |
| 2026-01-20 10:16 | 49.35578 | -2.24355 | 6512 ft | 294 kts | 310° |
| 2026-01-20 10:17 | 49.40128 | -2.30715 | 9070 ft | 299 kts | 311° |
| 2026-01-20 10:17 | 49.43275 | -2.35097 | 10348 ft | 319 kts | 311° |
| 2026-01-20 10:18 | 49.46769 | -2.39978 | 11065 ft | 352 kts | 311° |
| 2026-01-20 10:18 | 49.52241 | -2.47792 | 13253 ft | 365 kts | 311° |
| 2026-01-20 10:19 | 49.54111 | -2.50484 | 13921 ft | 370 kts | 311° |
| 2026-01-20 10:19 | 49.59792 | -2.58665 | 15949 ft | 379 kts | 311° |
| 2026-01-20 10:20 | 49.61727 | -2.61456 | 16645 ft | 383 kts | 311° |
| 2026-01-20 10:20 | 49.67657 | -2.70025 | 18592 ft | 394 kts | 312° |
| 2026-01-20 10:21 | 49.71723 | -2.75922 | 19570 ft | 405 kts | 311° |
| 2026-01-20 10:21 | 49.75813 | -2.81856 | 21052 ft | 400 kts | 311° |
| 2026-01-20 10:22 | 49.79836 | -2.87707 | 22608 ft | 393 kts | 311° |
| 2026-01-20 10:22 | 49.83784 | -2.93472 | 23749 ft | 393 kts | 311° |
| 2026-01-20 10:23 | 49.85759 | -2.96361 | 23734 ft | 389 kts | 311° |
| 2026-01-20 10:23 | 49.89658 | -3.02079 | 23775 ft | 394 kts | 311° |
| 2026-01-20 10:24 | 49.93637 | -3.07923 | 23777 ft | 392 kts | 311° |
| 2026-01-20 10:24 | 49.99523 | -3.16602 | 23750 ft | 389 kts | 309° |
| 2026-01-20 10:25 | 50.02418 | -3.23462 | 23740 ft | 380 kts | 291° |
| 2026-01-20 10:25 | 50.03709 | -3.27064 | 23750 ft | 382 kts | 292° |
| 2026-01-20 10:26 | 50.09790 | -3.35575 | 23734 ft | 410 kts | 328° |
| 2026-01-20 10:26 | 50.14893 | -3.39533 | 23732 ft | 411 kts | 329° |
| 2026-01-20 10:27 | 50.17451 | -3.41526 | 23723 ft | 411 kts | 329° |
| 2026-01-20 10:27 | 50.22542 | -3.45585 | 23700 ft | 409 kts | 328° |
| 2026-01-20 10:28 | 50.27557 | -3.49636 | 23687 ft | 407 kts | 328° |
| 2026-01-20 10:28 | 50.30070 | -3.51675 | 23682 ft | 406 kts | 328° |
| 2026-01-20 10:29 | 50.40049 | -3.59831 | 23688 ft | 405 kts | 328° |
| 2026-01-20 10:29 | 50.45051 | -3.63920 | 23685 ft | 406 kts | 330° |
| 2026-01-20 10:30 | 50.50561 | -3.66098 | 23684 ft | 414 kts | 357° |
| 2026-01-20 10:30 | 50.56304 | -3.65282 | 23678 ft | 415 kts | 7° |
| 2026-01-20 10:31 | 50.59168 | -3.64678 | 23674 ft | 415 kts | 8° |
| 2026-01-20 10:31 | 50.64885 | -3.63484 | 23681 ft | 414 kts | 7° |
| 2026-01-20 10:32 | 50.70587 | -3.62353 | 23683 ft | 412 kts | 7° |
| 2026-01-20 10:32 | 50.79062 | -3.60718 | 23682 ft | 409 kts | 6° |
| 2026-01-20 10:33 | 50.84710 | -3.59631 | 23690 ft | 408 kts | 6° |
| 2026-01-20 10:33 | 50.90353 | -3.58541 | 23679 ft | 409 kts | 6° |
| 2026-01-20 10:34 | 50.96004 | -3.57446 | 23681 ft | 409 kts | 6° |
| 2026-01-20 10:34 | 51.01653 | -3.56349 | 23678 ft | 410 kts | 6° |
| 2026-01-20 10:35 | 51.04488 | -3.55797 | 23678 ft | 410 kts | 6° |
| 2026-01-20 10:35 | 51.10157 | -3.54692 | 23670 ft | 411 kts | 6° |
| 2026-01-20 10:36 | 51.15789 | -3.53591 | 23678 ft | 411 kts | 6° |
| 2026-01-20 10:36 | 51.24307 | -3.51921 | 23668 ft | 410 kts | 6° |
| 2026-01-20 10:37 | 51.29981 | -3.50809 | 23685 ft | 410 kts | 6° |
| 2026-01-20 10:37 | 51.35652 | -3.49697 | 23692 ft | 410 kts | 6° |
| 2026-01-20 10:38 | 51.37529 | -3.49328 | 23692 ft | 410 kts | 6° |
| 2026-01-20 10:38 | 51.44126 | -3.48029 | 23696 ft | 411 kts | 6° |
| 2026-01-20 10:39 | 51.51683 | -3.46536 | 23692 ft | 411 kts | 6° |
| 2026-01-20 10:39 | 51.54525 | -3.45973 | 23702 ft | 412 kts | 6° |
| 2026-01-20 10:40 | 51.60235 | -3.44840 | 23713 ft | 415 kts | 6° |
| 2026-01-20 10:40 | 51.68864 | -3.43122 | 23699 ft | 418 kts | 6° |
| 2026-01-20 10:41 | 51.74652 | -3.41966 | 23758 ft | 418 kts | 6° |
| 2026-01-20 10:41 | 51.80423 | -3.40810 | 23741 ft | 417 kts | 6° |
| 2026-01-20 10:42 | 51.83265 | -3.40239 | 23700 ft | 416 kts | 6° |
| 2026-01-20 10:42 | 51.88888 | -3.39109 | 23710 ft | 401 kts | 6° |
| 2026-01-20 10:43 | 51.94462 | -3.38082 | 23710 ft | 405 kts | 3° |
| 2026-01-20 10:43 | 52.00103 | -3.37647 | 23716 ft | 407 kts | 1° |
| 2026-01-20 10:44 | 52.05771 | -3.37324 | 23698 ft | 407 kts | 1° |
| 2026-01-20 10:44 | 52.14199 | -3.36757 | 23684 ft | 404 kts | 1° |
| 2026-01-20 10:45 | 52.19810 | -3.36349 | 23695 ft | 402 kts | 1° |
| 2026-01-20 10:45 | 52.22610 | -3.36144 | 23694 ft | 402 kts | 1° |
| 2026-01-20 10:46 | 52.28202 | -3.35733 | 23338 ft | 404 kts | 1° |
| 2026-01-20 10:46 | 52.33772 | -3.35324 | 22418 ft | 402 kts | 1° |
| 2026-01-20 10:47 | 52.39363 | -3.34912 | 21421 ft | 401 kts | 1° |
| 2026-01-20 10:47 | 52.44949 | -3.34501 | 20411 ft | 402 kts | 1° |
| 2026-01-20 10:48 | 52.50522 | -3.34077 | 19541 ft | 399 kts | 1° |
| 2026-01-20 10:48 | 52.58744 | -3.33433 | 18333 ft | 393 kts | 2° |
| 2026-01-20 10:49 | 52.61476 | -3.33219 | 17928 ft | 391 kts | 2° |
| 2026-01-20 10:49 | 52.66743 | -3.31143 | 16921 ft | 391 kts | 22° |
| 2026-01-20 10:50 | 52.71856 | -3.27920 | 15860 ft | 394 kts | 22° |
| 2026-01-20 10:50 | 52.76973 | -3.24784 | 14843 ft | 394 kts | 21° |
| 2026-01-20 10:51 | 52.82138 | -3.21686 | 13842 ft | 394 kts | 21° |
| 2026-01-20 10:51 | 52.87305 | -3.18590 | 12744 ft | 394 kts | 22° |
| 2026-01-20 10:52 | 52.92622 | -3.16947 | 11742 ft | 383 kts | 359° |
| 2026-01-20 10:52 | 53.00297 | -3.16589 | 10297 ft | 356 kts | 3° |
| 2026-01-20 10:53 | 53.02743 | -3.16385 | 9843 ft | 348 kts | 3° |
| 2026-01-20 10:53 | 53.07370 | -3.15999 | 9592 ft | 313 kts | 3° |
| 2026-01-20 10:54 | 53.11627 | -3.15653 | 8824 ft | 305 kts | 3° |
| 2026-01-20 10:54 | 53.15738 | -3.15322 | 8614 ft | 285 kts | 3° |
| 2026-01-20 10:55 | 53.19506 | -3.15017 | 8396 ft | 259 kts | 4° |
| 2026-01-20 10:55 | 53.22928 | -3.14458 | 8170 ft | 232 kts | 7° |
| 2026-01-20 10:56 | 53.26064 | -3.13918 | 7585 ft | 225 kts | 7° |
| 2026-01-20 10:56 | 53.30654 | -3.13052 | 6583 ft | 212 kts | 21° |
| 2026-01-20 10:57 | 53.31730 | -3.11737 | 6295 ft | 180 kts | 73° |
| 2026-01-20 10:57 | 53.32241 | -3.08058 | 5474 ft | 157 kts | 90° |
| 2026-01-20 10:58 | 53.32558 | -3.04542 | 4524 ft | 141 kts | 102° |
| 2026-01-20 10:58 | 53.32639 | -3.01422 | 3701 ft | 135 kts | 101° |
| 2026-01-20 10:59 | 53.32916 | -2.98222 | 2642 ft | 141 kts | 97° |
| 2026-01-20 10:59 | 53.33142 | -2.95025 | 1667 ft | 133 kts | 101° |
| 2026-01-20 10:59 | 53.33172 | -2.93520 | 1235 ft | 126 kts | 102° |
| 2026-01-20 11:00 | 53.33131 | -2.90593 | 619 ft | 126 kts | 94° |
| 2026-01-20 11:01 | 53.33307 | -2.86374 | 108 ft | 116 kts | 96° |
| 2026-01-20 11:01 | 53.33398 | -2.84158 | 89 ft | 30 kts | 85° |
| 2026-01-20 11:02 | 53.33414 | -2.83837 | 91 ft | 22 kts | 85° |
| 2026-01-20 11:02 | 53.33586 | -2.83722 | 88 ft | 13 kts | 269° |
| 2026-01-20 11:03 | 53.33573 | -2.84013 | 91 ft | 14 kts | 265° |
| 2026-01-20 11:03 | 53.33564 | -2.84198 | 88 ft | 18 kts | 265° |
| 2026-01-20 11:04 | 53.33539 | -2.84699 | 92 ft | 25 kts | 265° |
| 2026-01-20 11:04 | 53.33505 | -2.85459 | 88 ft | 9 kts | 273° |
| 2026-01-20 11:05 | 53.33605 | -2.85541 | 91 ft | 8 kts | 296° |
| 2026-01-20 11:05 | 53.33631 | -2.85650 | 88 ft | 4 kts | 347° |
| 2026-01-20 11:06 | 53.33654 | -2.85653 | 88 ft | 0 kts | 356° |